sensor_id;sensor_type;location;lat;lon;timestamp;pressure;altitude;pressure_sealevel;temperature;humidity
59168;BME280;44948;55.046;73.266;2022-11-04T00:00:01;100226.63;;;2.60;84.44
59168;BME280;44948;55.046;73.266;2022-11-04T00:01:49;100222.19;;;2.63;84.12
59168;BME280;44948;55.046;73.266;2022-11-04T00:03:31;100229.28;;;2.58;84.09
59168;BME280;44948;55.046;73.266;2022-11-04T00:05:14;100225.13;;;2.54;84.56
59168;BME280;44948;55.046;73.266;2022-11-04T00:06:57;100238.88;;;2.56;84.61
59168;BME280;44948;55.046;73.266;2022-11-04T00:08:39;100238.88;;;2.56;84.02
59168;BME280;44948;55.046;73.266;2022-11-04T00:10:22;100228.31;;;2.61;84.26
59168;BME280;44948;55.046;73.266;2022-11-04T00:12:24;100237.84;;;2.60;84.41
59168;BME280;44948;55.046;73.266;2022-11-04T00:14:07;100229.94;;;2.63;84.15
59168;BME280;44948;55.046;73.266;2022-11-04T00:15:50;100228.50;;;2.56;84.06
59168;BME280;44948;55.046;73.266;2022-11-04T00:17:50;100236.16;;;2.59;84.12
59168;BME280;44948;55.046;73.266;2022-11-04T00:19:33;100197.78;;;2.47;84.42
59168;BME280;44948;55.046;73.266;2022-11-04T00:21:34;100211.50;;;2.49;84.37
59168;BME280;44948;55.046;73.266;2022-11-04T00:23:34;100222.97;;;2.66;84.14
59168;BME280;44948;55.046;73.266;2022-11-04T00:25:35;100229.81;;;2.67;84.11
59168;BME280;44948;55.046;73.266;2022-11-04T00:27:36;100223.03;;;2.64;84.03
59168;BME280;44948;55.046;73.266;2022-11-04T00:29:53;100193.63;;;2.43;84.25
59168;BME280;44948;55.046;73.266;2022-11-04T00:31:36;100224.00;;;2.61;84.58
59168;BME280;44948;55.046;73.266;2022-11-04T00:33:36;100228.00;;;2.69;83.97
59168;BME280;44948;55.046;73.266;2022-11-04T00:35:19;100209.00;;;2.70;83.67
59168;BME280;44948;55.046;73.266;2022-11-04T00:37:02;100224.41;;;2.73;83.99
59168;BME280;44948;55.046;73.266;2022-11-04T00:38:45;100220.09;;;2.73;83.51
59168;BME280;44948;55.046;73.266;2022-11-04T00:40:28;100224.41;;;2.73;83.89
59168;BME280;44948;55.046;73.266;2022-11-04T00:42:10;100192.19;;;2.58;83.86
59168;BME280;44948;55.046;73.266;2022-11-04T00:43:56;100213.28;;;2.71;83.84
59168;BME280;44948;55.046;73.266;2022-11-04T00:45:40;100194.59;;;2.62;83.48
59168;BME280;44948;55.046;73.266;2022-11-04T00:47:23;100194.34;;;2.69;83.54
59168;BME280;44948;55.046;73.266;2022-11-04T00:49:06;100221.66;;;2.77;83.40
59168;BME280;44948;55.046;73.266;2022-11-04T00:50:48;100224.03;;;2.82;83.46
59168;BME280;44948;55.046;73.266;2022-11-04T00:52:30;100221.06;;;2.71;83.92
59168;BME280;44948;55.046;73.266;2022-11-04T00:54:13;100181.13;;;2.54;83.68
59168;BME280;44948;55.046;73.266;2022-11-04T00:55:58;100219.00;;;2.79;83.63
59168;BME280;44948;55.046;73.266;2022-11-04T00:57:40;100214.53;;;2.82;83.82
59168;BME280;44948;55.046;73.266;2022-11-04T00:59:23;100215.50;;;2.80;83.17
59168;BME280;44948;55.046;73.266;2022-11-04T01:01:09;100189.22;;;2.67;83.17
59168;BME280;44948;55.046;73.266;2022-11-04T01:02:52;100199.44;;;2.72;83.38
59168;BME280;44948;55.046;73.266;2022-11-04T01:04:34;100180.03;;;2.60;83.74
59168;BME280;44948;55.046;73.266;2022-11-04T01:06:17;100212.00;;;2.81;83.65
59168;BME280;44948;55.046;73.266;2022-11-04T01:08:00;100222.72;;;2.50;83.54
59168;BME280;44948;55.046;73.266;2022-11-04T01:09:44;100221.44;;;2.38;84.07
59168;BME280;44948;55.046;73.266;2022-11-04T01:11:27;100219.78;;;2.59;84.12
59168;BME280;44948;55.046;73.266;2022-11-04T01:13:10;100210.91;;;2.65;84.08
59168;BME280;44948;55.046;73.266;2022-11-04T01:14:53;100208.13;;;2.69;83.87
59168;BME280;44948;55.046;73.266;2022-11-04T01:16:35;100221.97;;;2.70;83.98
59168;BME280;44948;55.046;73.266;2022-11-04T01:18:18;100188.91;;;2.54;83.60
59168;BME280;44948;55.046;73.266;2022-11-04T01:20:00;100212.38;;;2.72;83.80
59168;BME280;44948;55.046;73.266;2022-11-04T01:21:42;100213.94;;;2.76;83.80
59168;BME280;44948;55.046;73.266;2022-11-04T01:23:25;100214.22;;;2.68;84.02
59168;BME280;44948;55.046;73.266;2022-11-04T01:25:09;100182.81;;;2.55;83.92
59168;BME280;44948;55.046;73.266;2022-11-04T01:26:51;100172.69;;;2.49;84.24
59168;BME280;44948;55.046;73.266;2022-11-04T01:28:33;100212.38;;;2.72;83.89
59168;BME280;44948;55.046;73.266;2022-11-04T01:30:16;100209.72;;;2.73;84.33
59168;BME280;44948;55.046;73.266;2022-11-04T01:31:58;100193.56;;;2.67;83.98
59168;BME280;44948;55.046;73.266;2022-11-04T01:33:41;100211.34;;;2.76;83.72
59168;BME280;44948;55.046;73.266;2022-11-04T01:35:23;100213.16;;;2.74;83.51
59168;BME280;44948;55.046;73.266;2022-11-04T01:37:05;100206.34;;;2.71;84.07
59168;BME280;44948;55.046;73.266;2022-11-04T01:38:48;100207.06;;;2.75;83.63
59168;BME280;44948;55.046;73.266;2022-11-04T01:40:35;100209.78;;;2.72;83.28
59168;BME280;44948;55.046;73.266;2022-11-04T01:42:20;100205.50;;;2.71;83.48
59168;BME280;44948;55.046;73.266;2022-11-04T01:46:41;100209.09;;;2.67;83.47
59168;BME280;44948;55.046;73.266;2022-11-04T01:48:29;100188.78;;;2.57;83.18
59168;BME280;44948;55.046;73.266;2022-11-04T01:50:18;100208.44;;;2.61;84.22
59168;BME280;44948;55.046;73.266;2022-11-04T01:52:07;100194.66;;;2.61;84.11
59168;BME280;44948;55.046;73.266;2022-11-04T01:53:54;100209.22;;;2.63;84.01
59168;BME280;44948;55.046;73.266;2022-11-04T01:55:44;100205.75;;;2.65;83.96
59168;BME280;44948;55.046;73.266;2022-11-04T01:57:33;100169.44;;;2.44;83.66
59168;BME280;44948;55.046;73.266;2022-11-04T01:59:21;100199.66;;;2.66;83.82
59168;BME280;44948;55.046;73.266;2022-11-04T02:01:07;100149.97;;;2.34;83.79
59168;BME280;44948;55.046;73.266;2022-11-04T02:03:03;100203.22;;;2.63;83.32
59168;BME280;44948;55.046;73.266;2022-11-04T02:04:47;100195.50;;;2.61;83.54
59168;BME280;44948;55.046;73.266;2022-11-04T02:06:29;100205.22;;;2.56;84.27
59168;BME280;44948;55.046;73.266;2022-11-04T02:08:13;100171.50;;;2.36;83.70
59168;BME280;44948;55.046;73.266;2022-11-04T02:09:57;100186.47;;;2.50;84.26
59168;BME280;44948;55.046;73.266;2022-11-04T02:11:39;100194.06;;;2.54;83.60
59168;BME280;44948;55.046;73.266;2022-11-04T02:13:41;100170.59;;;2.37;83.77
59168;BME280;44948;55.046;73.266;2022-11-04T02:17:41;100192.72;;;2.44;83.93
59168;BME280;44948;55.046;73.266;2022-11-04T02:26:15;100196.34;;;2.40;84.33
59168;BME280;44948;55.046;73.266;2022-11-04T02:30:23;100190.53;;;2.33;84.75
59168;BME280;44948;55.046;73.266;2022-11-04T02:32:38;100197.47;;;2.33;84.99
59168;BME280;44948;55.046;73.266;2022-11-04T02:38:58;100170.53;;;2.15;84.70
59168;BME280;44948;55.046;73.266;2022-11-04T02:42:58;100199.00;;;2.39;84.82
59168;BME280;44948;55.046;73.266;2022-11-04T02:44:50;100147.31;;;2.14;84.26
59168;BME280;44948;55.046;73.266;2022-11-04T02:48:38;100196.88;;;2.48;84.69
59168;BME280;44948;55.046;73.266;2022-11-04T02:50:49;100193.91;;;2.36;84.42
59168;BME280;44948;55.046;73.266;2022-11-04T02:52:44;100195.19;;;2.47;84.64
59168;BME280;44948;55.046;73.266;2022-11-04T02:54:40;100195.38;;;2.43;84.92
59168;BME280;44948;55.046;73.266;2022-11-04T02:56:25;100196.09;;;2.46;84.57
59168;BME280;44948;55.046;73.266;2022-11-04T02:58:14;100182.25;;;2.47;84.47
59168;BME280;44948;55.046;73.266;2022-11-04T03:00:10;100195.13;;;2.49;84.85
59168;BME280;44948;55.046;73.266;2022-11-04T03:01:55;100147.09;;;2.20;84.58
59168;BME280;44948;55.046;73.266;2022-11-04T03:03:40;100161.91;;;2.38;84.96
59168;BME280;44948;55.046;73.266;2022-11-04T03:05:29;100153.59;;;2.30;84.17
59168;BME280;44948;55.046;73.266;2022-11-04T03:07:16;100160.31;;;2.34;84.78
59168;BME280;44948;55.046;73.266;2022-11-04T03:09:01;100201.78;;;2.56;84.34
59168;BME280;44948;55.046;73.266;2022-11-04T03:10:50;100189.00;;;2.51;84.73
59168;BME280;44948;55.046;73.266;2022-11-04T03:12:41;100169.00;;;2.33;84.70
59168;BME280;44948;55.046;73.266;2022-11-04T03:14:40;100190.66;;;2.52;84.45
59168;BME280;44948;55.046;73.266;2022-11-04T03:16:34;100190.66;;;2.52;84.47
59168;BME280;44948;55.046;73.266;2022-11-04T03:18:39;100198.16;;;2.60;84.82
59168;BME280;44948;55.046;73.266;2022-11-04T03:20:26;100182.25;;;2.47;84.96
59168;BME280;44948;55.046;73.266;2022-11-04T03:22:13;100197.31;;;2.59;85.12
59168;BME280;44948;55.046;73.266;2022-11-04T03:23:57;100175.13;;;2.52;84.45
59168;BME280;44948;55.046;73.266;2022-11-04T03:25:43;100191.41;;;2.78;84.00
59168;BME280;44948;55.046;73.266;2022-11-04T03:28:04;100183.34;;;2.63;84.20
59168;BME280;44948;55.046;73.266;2022-11-04T03:29:58;100190.06;;;2.68;84.37
59168;BME280;44948;55.046;73.266;2022-11-04T03:32:13;100164.19;;;2.46;84.19
59168;BME280;44948;55.046;73.266;2022-11-04T03:34:00;100194.78;;;2.80;84.09
59168;BME280;44948;55.046;73.266;2022-11-04T03:35:43;100194.78;;;2.80;83.79
59168;BME280;44948;55.046;73.266;2022-11-04T03:37:25;100197.09;;;2.86;84.36
59168;BME280;44948;55.046;73.266;2022-11-04T03:39:10;100179.03;;;2.84;83.78
59168;BME280;44948;55.046;73.266;2022-11-04T03:40:52;100174.75;;;2.83;83.79
59168;BME280;44948;55.046;73.266;2022-11-04T03:42:41;100197.47;;;2.99;83.58
59168;BME280;44948;55.046;73.266;2022-11-04T03:44:28;100190.16;;;2.88;83.93
59168;BME280;44948;55.046;73.266;2022-11-04T03:46:11;100184.78;;;2.92;83.54
59168;BME280;44948;55.046;73.266;2022-11-04T03:47:55;100193.81;;;3.04;83.31
59168;BME280;44948;55.046;73.266;2022-11-04T03:49:40;100181.50;;;3.09;82.97
59168;BME280;44948;55.046;73.266;2022-11-04T03:51:22;100176.44;;;3.06;82.78
59168;BME280;44948;55.046;73.266;2022-11-04T03:53:05;100196.91;;;3.12;82.89
59168;BME280;44948;55.046;73.266;2022-11-04T03:54:47;100166.97;;;3.05;82.80
59168;BME280;44948;55.046;73.266;2022-11-04T03:58:57;100191.97;;;3.06;83.21
59168;BME280;44948;55.046;73.266;2022-11-04T04:01:02;100184.16;;;3.08;82.45
59168;BME280;44948;55.046;73.266;2022-11-04T04:04:58;100191.22;;;3.25;82.47
59168;BME280;44948;55.046;73.266;2022-11-04T04:06:40;100176.59;;;3.02;82.99
59168;BME280;44948;55.046;73.266;2022-11-04T04:14:18;100179.16;;;3.23;81.93
59168;BME280;44948;55.046;73.266;2022-11-04T04:16:31;100178.84;;;3.31;82.34
59168;BME280;44948;55.046;73.266;2022-11-04T04:18:17;100147.94;;;3.27;81.59
59168;BME280;44948;55.046;73.266;2022-11-04T04:20:11;100142.75;;;3.27;81.29
59168;BME280;44948;55.046;73.266;2022-11-04T04:22:02;100182.25;;;3.52;81.60
59168;BME280;44948;55.046;73.266;2022-11-04T04:23:49;100175.91;;;3.59;81.60
59168;BME280;44948;55.046;73.266;2022-11-04T04:25:52;100167.88;;;3.45;81.55
59168;BME280;44948;55.046;73.266;2022-11-04T04:27:56;100152.13;;;3.29;81.53
59168;BME280;44948;55.046;73.266;2022-11-04T04:29:39;100172.94;;;3.48;80.93
59168;BME280;44948;55.046;73.266;2022-11-04T04:31:28;100171.38;;;3.44;81.09
59168;BME280;44948;55.046;73.266;2022-11-04T04:33:30;100166.47;;;3.38;80.98
59168;BME280;44948;55.046;73.266;2022-11-04T04:35:12;100173.66;;;3.11;81.11
59168;BME280;44948;55.046;73.266;2022-11-04T04:37:21;100176.19;;;3.12;81.23
59168;BME280;44948;55.046;73.266;2022-11-04T04:39:06;100131.91;;;2.97;80.95
59168;BME280;44948;55.046;73.266;2022-11-04T04:41:15;100165.09;;;3.09;80.66
59168;BME280;44948;55.046;73.266;2022-11-04T04:43:19;100159.13;;;3.07;80.89
59168;BME280;44948;55.046;73.266;2022-11-04T04:45:33;100162.09;;;2.98;80.58
59168;BME280;44948;55.046;73.266;2022-11-04T04:47:21;100116.22;;;2.79;80.73
59168;BME280;44948;55.046;73.266;2022-11-04T04:49:05;100160.75;;;3.09;80.64
59168;BME280;44948;55.046;73.266;2022-11-04T04:50:50;100164.00;;;3.14;80.90
59168;BME280;44948;55.046;73.266;2022-11-04T04:52:39;100128.97;;;2.84;80.17
59168;BME280;44948;55.046;73.266;2022-11-04T04:54:22;100171.19;;;2.86;80.86
59168;BME280;44948;55.046;73.266;2022-11-04T04:56:04;100165.47;;;3.00;80.52
59168;BME280;44948;55.046;73.266;2022-11-04T04:57:47;100136.59;;;2.88;nan
59168;BME280;44948;55.046;73.266;2022-11-04T04:59:29;100171.13;;;3.09;80.70
59168;BME280;44948;55.046;73.266;2022-11-04T05:01:11;100132.34;;;2.86;80.41
59168;BME280;44948;55.046;73.266;2022-11-04T05:02:54;100179.81;;;3.08;80.73
59168;BME280;44948;55.046;73.266;2022-11-04T05:04:37;100153.41;;;2.99;80.29
59168;BME280;44948;55.046;73.266;2022-11-04T05:06:19;100126.66;;;2.78;80.59
59168;BME280;44948;55.046;73.266;2022-11-04T05:08:05;100132.03;;;2.73;80.95
59168;BME280;44948;55.046;73.266;2022-11-04T05:09:48;100163.06;;;2.95;80.64
59168;BME280;44948;55.046;73.266;2022-11-04T05:11:32;100169.03;;;2.97;81.18
59168;BME280;44948;55.046;73.266;2022-11-04T05:13:15;100152.56;;;2.98;81.43
59168;BME280;44948;55.046;73.266;2022-11-04T05:15:12;100129.97;;;2.81;81.18
59168;BME280;44948;55.046;73.266;2022-11-04T05:16:55;100122.38;;;2.77;80.98
59168;BME280;44948;55.046;73.266;2022-11-04T05:18:37;100153.34;;;3.00;81.37
59168;BME280;44948;55.046;73.266;2022-11-04T05:20:20;100111.91;;;2.80;80.87
59168;BME280;44948;55.046;73.266;2022-11-04T05:22:03;100144.66;;;3.01;80.95
59168;BME280;44948;55.046;73.266;2022-11-04T05:23:45;100144.88;;;2.97;81.09
59168;BME280;44948;55.046;73.266;2022-11-04T05:25:29;100145.34;;;3.06;80.93
59168;BME280;44948;55.046;73.266;2022-11-04T05:27:12;100144.56;;;3.04;81.67
59168;BME280;44948;55.046;73.266;2022-11-04T05:28:55;100141.25;;;3.01;81.25
59168;BME280;44948;55.046;73.266;2022-11-04T05:30:38;100127.38;;;3.02;81.14
59168;BME280;44948;55.046;73.266;2022-11-04T05:32:20;100131.84;;;2.98;80.97
59168;BME280;44948;55.046;73.266;2022-11-04T05:34:02;100123.38;;;2.95;80.94
59168;BME280;44948;55.046;73.266;2022-11-04T05:35:46;100125.13;;;2.94;81.11
59168;BME280;44948;55.046;73.266;2022-11-04T05:37:28;100115.59;;;2.95;81.18
59168;BME280;44948;55.046;73.266;2022-11-04T05:39:12;100114.81;;;2.92;81.22
59168;BME280;44948;55.046;73.266;2022-11-04T05:40:56;100114.50;;;3.00;80.99
59168;BME280;44948;55.046;73.266;2022-11-04T05:42:39;100114.38;;;3.03;81.33
59168;BME280;44948;55.046;73.266;2022-11-04T05:44:21;100120.06;;;3.11;81.02
59168;BME280;44948;55.046;73.266;2022-11-04T05:46:04;100114.13;;;3.09;80.90
59168;BME280;44948;55.046;73.266;2022-11-04T05:47:46;100102.91;;;3.09;80.40
59168;BME280;44948;55.046;73.266;2022-11-04T05:49:29;100071.56;;;2.95;80.24
59168;BME280;44948;55.046;73.266;2022-11-04T05:51:16;100113.31;;;3.28;80.47
59168;BME280;44948;55.046;73.266;2022-11-04T05:52:59;100109.69;;;3.32;80.24
59168;BME280;44948;55.046;73.266;2022-11-04T05:54:42;100083.03;;;3.09;79.63
59168;BME280;44948;55.046;73.266;2022-11-04T05:56:24;100113.13;;;3.32;79.63
59168;BME280;44948;55.046;73.266;2022-11-04T05:58:06;100111.38;;;3.33;79.83
59168;BME280;44948;55.046;73.266;2022-11-04T05:59:48;100121.50;;;3.39;79.59
59168;BME280;44948;55.046;73.266;2022-11-04T06:01:35;100117.16;;;3.39;78.95
59168;BME280;44948;55.046;73.266;2022-11-04T06:03:18;100101.84;;;3.33;79.07
59168;BME280;44948;55.046;73.266;2022-11-04T06:05:01;100082.22;;;3.28;78.76
59168;BME280;44948;55.046;73.266;2022-11-04T06:06:43;100123.19;;;3.59;78.83
59168;BME280;44948;55.046;73.266;2022-11-04T06:08:26;100133.28;;;3.65;78.86
59168;BME280;44948;55.046;73.266;2022-11-04T06:10:08;100066.53;;;3.31;78.82
59168;BME280;44948;55.046;73.266;2022-11-04T06:11:50;100129.59;;;3.70;78.83
59168;BME280;44948;55.046;73.266;2022-11-04T06:13:33;100118.88;;;3.78;78.44
59168;BME280;44948;55.046;73.266;2022-11-04T06:15:15;100117.75;;;3.83;78.09
59168;BME280;44948;55.046;73.266;2022-11-04T06:17:00;100109.88;;;3.85;78.08
59168;BME280;44948;55.046;73.266;2022-11-04T06:18:42;100071.88;;;3.65;77.57
59168;BME280;44948;55.046;73.266;2022-11-04T06:20:25;100107.56;;;3.98;78.01
59168;BME280;44948;55.046;73.266;2022-11-04T06:22:12;100086.06;;;3.96;77.22
59168;BME280;44948;55.046;73.266;2022-11-04T06:23:56;100104.41;;;4.10;77.28
59168;BME280;44948;55.046;73.266;2022-11-04T06:25:38;100098.94;;;4.16;76.91
59168;BME280;44948;55.046;73.266;2022-11-04T06:27:21;100105.38;;;4.26;76.76
59168;BME280;44948;55.046;73.266;2022-11-04T06:29:03;100103.56;;;4.28;76.63
59168;BME280;44948;55.046;73.266;2022-11-04T06:30:45;100097.22;;;4.34;76.09
59168;BME280;44948;55.046;73.266;2022-11-04T06:32:27;100087.97;;;4.28;75.38
59168;BME280;44948;55.046;73.266;2022-11-04T06:34:10;100083.53;;;4.30;75.23
59168;BME280;44948;55.046;73.266;2022-11-04T06:35:56;100075.44;;;4.36;75.08
59168;BME280;44948;55.046;73.266;2022-11-04T06:37:38;100084.22;;;4.34;75.31
59168;BME280;44948;55.046;73.266;2022-11-04T06:39:20;99982.00;;;3.83;75.05
59168;BME280;44948;55.046;73.266;2022-11-04T06:41:04;100075.84;;;4.46;75.07
59168;BME280;44948;55.046;73.266;2022-11-04T06:42:47;100052.53;;;4.27;75.19
59168;BME280;44948;55.046;73.266;2022-11-04T06:44:31;100069.22;;;4.40;74.82
59168;BME280;44948;55.046;73.266;2022-11-04T06:48:16;100055.59;;;4.35;74.63
59168;BME280;44948;55.046;73.266;2022-11-04T06:49:58;100058.19;;;4.35;74.30
59168;BME280;44948;55.046;73.266;2022-11-04T06:51:41;100058.19;;;4.35;74.57
59168;BME280;44948;55.046;73.266;2022-11-04T06:53:23;100031.69;;;4.29;74.93
59168;BME280;44948;55.046;73.266;2022-11-04T06:55:06;100059.44;;;4.46;74.57
59168;BME280;44948;55.046;73.266;2022-11-04T06:56:49;100061.81;;;4.50;75.00
59168;BME280;44948;55.046;73.266;2022-11-04T06:58:31;100062.44;;;4.55;74.32
59168;BME280;44948;55.046;73.266;2022-11-04T07:00:14;100041.72;;;4.54;74.56
59168;BME280;44948;55.046;73.266;2022-11-04T07:01:56;100055.00;;;4.65;73.90
59168;BME280;44948;55.046;73.266;2022-11-04T07:03:38;100061.59;;;4.72;74.24
59168;BME280;44948;55.046;73.266;2022-11-04T07:05:21;99980.63;;;4.29;74.10
59168;BME280;44948;55.046;73.266;2022-11-04T07:07:03;100066.75;;;4.91;74.74
59168;BME280;44948;55.046;73.266;2022-11-04T07:08:47;100065.66;;;4.95;73.77
59168;BME280;44948;55.046;73.266;2022-11-04T07:10:30;100064.34;;;5.03;73.65
59168;BME280;44948;55.046;73.266;2022-11-04T07:12:12;100068.94;;;4.98;73.78
59168;BME280;44948;55.046;73.266;2022-11-04T07:13:55;100060.53;;;5.11;73.62
59168;BME280;44948;55.046;73.266;2022-11-04T07:15:38;100063.63;;;4.83;74.21
59168;BME280;44948;55.046;73.266;2022-11-04T07:17:20;100057.31;;;5.06;73.81
59168;BME280;44948;55.046;73.266;2022-11-04T07:19:03;100061.44;;;5.10;73.30
59168;BME280;44948;55.046;73.266;2022-11-04T07:20:46;99951.88;;;4.50;73.09
59168;BME280;44948;55.046;73.266;2022-11-04T07:22:29;100057.28;;;5.23;73.15
59168;BME280;44948;55.046;73.266;2022-11-04T07:24:11;100053.28;;;5.33;73.32
59168;BME280;44948;55.046;73.266;2022-11-04T07:25:59;100012.63;;;5.15;72.34
59168;BME280;44948;55.046;73.266;2022-11-04T07:27:42;100031.91;;;5.44;72.48
59168;BME280;44948;55.046;73.266;2022-11-04T07:29:25;100012.50;;;5.33;72.35
59168;BME280;44948;55.046;73.266;2022-11-04T07:31:10;100038.28;;;5.54;71.87
59168;BME280;44948;55.046;73.266;2022-11-04T07:32:53;100035.47;;;5.58;71.94
59168;BME280;44948;55.046;73.266;2022-11-04T07:34:35;100034.34;;;5.62;72.27
59168;BME280;44948;55.046;73.266;2022-11-04T07:36:18;100029.00;;;5.66;72.58
59168;BME280;44948;55.046;73.266;2022-11-04T07:38:01;99940.69;;;5.15;71.57
59168;BME280;44948;55.046;73.266;2022-11-04T07:39:44;100009.63;;;5.55;71.14
59168;BME280;44948;55.046;73.266;2022-11-04T07:41:27;100028.91;;;5.67;70.89
59168;BME280;44948;55.046;73.266;2022-11-04T07:43:10;100028.72;;;5.70;70.29
59168;BME280;44948;55.046;73.266;2022-11-04T07:44:55;100038.72;;;5.78;70.57
59168;BME280;44948;55.046;73.266;2022-11-04T07:46:37;100024.97;;;5.76;69.99
59168;BME280;44948;55.046;73.266;2022-11-04T07:48:20;100028.50;;;5.75;69.73
59168;BME280;44948;55.046;73.266;2022-11-04T07:50:02;100031.09;;;5.75;69.15
59168;BME280;44948;55.046;73.266;2022-11-04T07:51:45;100031.69;;;5.80;69.41
59168;BME280;44948;55.046;73.266;2022-11-04T07:53:29;100031.50;;;5.83;68.77
59168;BME280;44948;55.046;73.266;2022-11-04T07:55:11;100020.16;;;5.68;68.86
59168;BME280;44948;55.046;73.266;2022-11-04T07:56:59;100023.28;;;5.75;68.24
59168;BME280;44948;55.046;73.266;2022-11-04T07:58:44;100022.69;;;5.85;68.58
59168;BME280;44948;55.046;73.266;2022-11-04T08:00:26;99981.97;;;5.69;68.17
59168;BME280;44948;55.046;73.266;2022-11-04T08:02:09;99984.25;;;5.75;68.67
59168;BME280;44948;55.046;73.266;2022-11-04T08:03:52;100010.31;;;6.05;69.14
59168;BME280;44948;55.046;73.266;2022-11-04T08:05:34;100002.44;;;6.06;67.91
59168;BME280;44948;55.046;73.266;2022-11-04T08:07:16;99992.91;;;5.91;67.97
59168;BME280;44948;55.046;73.266;2022-11-04T08:08:58;100008.50;;;6.07;67.54
59168;BME280;44948;55.046;73.266;2022-11-04T08:10:41;100021.94;;;5.99;67.70
59168;BME280;44948;55.046;73.266;2022-11-04T08:12:23;100013.38;;;5.97;67.23
59168;BME280;44948;55.046;73.266;2022-11-04T08:14:05;99984.19;;;5.76;67.58
59168;BME280;44948;55.046;73.266;2022-11-04T08:15:48;100018.75;;;5.94;67.17
59168;BME280;44948;55.046;73.266;2022-11-04T08:17:30;100009.66;;;5.85;67.26
59168;BME280;44948;55.046;73.266;2022-11-04T08:19:12;100008.16;;;5.97;66.82
59168;BME280;44948;55.046;73.266;2022-11-04T08:20:55;99996.56;;;5.87;66.99
59168;BME280;44948;55.046;73.266;2022-11-04T08:22:37;100005.81;;;5.92;66.57
59168;BME280;44948;55.046;73.266;2022-11-04T08:24:20;100000.16;;;6.00;66.87
59168;BME280;44948;55.046;73.266;2022-11-04T08:26:07;100000.25;;;6.14;66.72
59168;BME280;44948;55.046;73.266;2022-11-04T08:27:50;100000.59;;;6.08;66.39
59168;BME280;44948;55.046;73.266;2022-11-04T08:29:33;100009.66;;;6.01;66.20
59168;BME280;44948;55.046;73.266;2022-11-04T08:31:25;99990.28;;;6.07;65.54
59168;BME280;44948;55.046;73.266;2022-11-04T08:33:07;99998.00;;;6.08;65.79
59168;BME280;44948;55.046;73.266;2022-11-04T08:34:49;99993.53;;;6.10;66.15
59168;BME280;44948;55.046;73.266;2022-11-04T08:36:34;99964.09;;;5.94;65.68
59168;BME280;44948;55.046;73.266;2022-11-04T08:38:23;99974.72;;;6.05;65.86
59168;BME280;44948;55.046;73.266;2022-11-04T08:40:06;99947.34;;;5.98;65.18
59168;BME280;44948;55.046;73.266;2022-11-04T08:41:49;99994.53;;;6.23;65.13
59168;BME280;44948;55.046;73.266;2022-11-04T08:43:32;99996.72;;;6.15;65.26
59168;BME280;44948;55.046;73.266;2022-11-04T08:45:15;99987.63;;;6.22;65.87
59168;BME280;44948;55.046;73.266;2022-11-04T08:46:58;99976.63;;;6.17;64.78
59168;BME280;44948;55.046;73.266;2022-11-04T08:48:42;99977.22;;;6.22;65.23
59168;BME280;44948;55.046;73.266;2022-11-04T08:50:24;99969.97;;;6.28;64.71
59168;BME280;44948;55.046;73.266;2022-11-04T08:52:08;99976.34;;;6.22;65.55
59168;BME280;44948;55.046;73.266;2022-11-04T08:53:51;99956.28;;;5.94;64.28
59168;BME280;44948;55.046;73.266;2022-11-04T08:55:34;99961.97;;;6.01;63.81
59168;BME280;44948;55.046;73.266;2022-11-04T08:57:16;99966.00;;;6.06;64.69
59168;BME280;44948;55.046;73.266;2022-11-04T08:59:00;99965.28;;;6.18;64.24
59168;BME280;44948;55.046;73.266;2022-11-04T09:00:45;99961.59;;;6.22;65.24
59168;BME280;44948;55.046;73.266;2022-11-04T09:02:28;99949.47;;;6.21;65.00
59168;BME280;44948;55.046;73.266;2022-11-04T09:04:11;99950.03;;;6.12;63.05
59168;BME280;44948;55.046;73.266;2022-11-04T09:05:56;99947.34;;;5.98;63.46
59168;BME280;44948;55.046;73.266;2022-11-04T09:07:38;99950.63;;;6.02;62.63
59168;BME280;44948;55.046;73.266;2022-11-04T09:09:20;99951.13;;;6.08;63.21
59168;BME280;44948;55.046;73.266;2022-11-04T09:11:08;99947.19;;;6.01;62.11
59168;BME280;44948;55.046;73.266;2022-11-04T09:12:51;99942.84;;;5.86;62.44
59168;BME280;44948;55.046;73.266;2022-11-04T09:14:33;99950.31;;;5.92;62.19
59168;BME280;44948;55.046;73.266;2022-11-04T09:16:16;99926.25;;;5.73;62.39
59168;BME280;44948;55.046;73.266;2022-11-04T09:17:58;99949.31;;;5.79;62.78
59168;BME280;44948;55.046;73.266;2022-11-04T09:19:40;99938.75;;;5.82;62.93
59168;BME280;44948;55.046;73.266;2022-11-04T09:21:24;99924.44;;;5.59;62.11
59168;BME280;44948;55.046;73.266;2022-11-04T09:23:07;99948.59;;;5.77;62.23
59168;BME280;44948;55.046;73.266;2022-11-04T09:24:49;99943.38;;;5.77;62.49
59168;BME280;44948;55.046;73.266;2022-11-04T09:26:32;99945.38;;;5.72;62.86
59168;BME280;44948;55.046;73.266;2022-11-04T09:28:16;99939.69;;;5.65;62.52
59168;BME280;44948;55.046;73.266;2022-11-04T09:29:58;99948.25;;;5.67;62.67
59168;BME280;44948;55.046;73.266;2022-11-04T09:31:40;99946.31;;;5.71;62.69
59168;BME280;44948;55.046;73.266;2022-11-04T09:33:23;99942.97;;;5.37;63.38
59168;BME280;44948;55.046;73.266;2022-11-04T09:35:06;99900.59;;;5.35;62.14
59168;BME280;44948;55.046;73.266;2022-11-04T09:36:48;99928.44;;;5.64;62.93
59168;BME280;44948;55.046;73.266;2022-11-04T09:38:30;99937.00;;;5.67;62.15
59168;BME280;44948;55.046;73.266;2022-11-04T09:40:18;99929.94;;;5.69;62.84
59168;BME280;44948;55.046;73.266;2022-11-04T09:45:45;99916.53;;;5.60;62.34
59168;BME280;44948;55.046;73.266;2022-11-04T09:47:29;99913.84;;;5.46;62.18
59168;BME280;44948;55.046;73.266;2022-11-04T09:49:14;99892.13;;;5.31;62.54
59168;BME280;44948;55.046;73.266;2022-11-04T09:51:02;99912.66;;;5.52;61.79
59168;BME280;44948;55.046;73.266;2022-11-04T09:52:53;99904.72;;;5.39;61.86